sensor_id;sensor_type;location;lat;lon;timestamp;P1;durP1;ratioP1;P2;durP2;ratioP2
77191;SDS011;66172;48.526;8.078;2023-02-25T00:01:04;12.10;;;4.93;;
77191;SDS011;66172;48.526;8.078;2023-02-25T00:03:34;12.40;;;4.73;;
77191;SDS011;66172;48.526;8.078;2023-02-25T00:06:01;14.82;;;5.10;;
77191;SDS011;66172;48.526;8.078;2023-02-25T00:08:27;12.68;;;4.85;;
77191;SDS011;66172;48.526;8.078;2023-02-25T00:10:57;14.75;;;5.45;;
77191;SDS011;66172;48.526;8.078;2023-02-25T00:13:25;14.70;;;4.65;;
77191;SDS011;66172;48.526;8.078;2023-02-25T00:15:51;11.93;;;4.60;;
77191;SDS011;66172;48.526;8.078;2023-02-25T00:18:17;12.27;;;4.80;;
77191;SDS011;66172;48.526;8.078;2023-02-25T00:20:43;11.80;;;4.88;;
77191;SDS011;66172;48.526;8.078;2023-02-25T00:23:09;15.53;;;5.33;;
77191;SDS011;66172;48.526;8.078;2023-02-25T00:25:35;12.13;;;5.30;;
77191;SDS011;66172;48.526;8.078;2023-02-25T00:28:00;14.70;;;5.05;;
77191;SDS011;66172;48.526;8.078;2023-02-25T00:30:31;12.65;;;4.82;;
77191;SDS011;66172;48.526;8.078;2023-02-25T00:32:58;13.13;;;5.10;;
77191;SDS011;66172;48.526;8.078;2023-02-25T00:35:23;12.25;;;4.43;;
77191;SDS011;66172;48.526;8.078;2023-02-25T00:37:50;12.48;;;4.80;;
77191;SDS011;66172;48.526;8.078;2023-02-25T00:40:16;14.60;;;5.18;;
77191;SDS011;66172;48.526;8.078;2023-02-25T00:42:42;15.33;;;5.07;;
77191;SDS011;66172;48.526;8.078;2023-02-25T00:45:08;13.68;;;4.85;;
77191;SDS011;66172;48.526;8.078;2023-02-25T00:47:36;13.40;;;4.85;;
77191;SDS011;66172;48.526;8.078;2023-02-25T00:50:02;12.73;;;4.82;;
77191;SDS011;66172;48.526;8.078;2023-02-25T00:52:34;14.40;;;5.10;;
77191;SDS011;66172;48.526;8.078;2023-02-25T00:55:02;13.00;;;4.77;;
77191;SDS011;66172;48.526;8.078;2023-02-25T00:57:30;13.77;;;4.82;;
77191;SDS011;66172;48.526;8.078;2023-02-25T00:59:56;11.90;;;5.20;;
77191;SDS011;66172;48.526;8.078;2023-02-25T01:02:22;14.68;;;4.70;;
77191;SDS011;66172;48.526;8.078;2023-02-25T01:04:48;15.33;;;5.00;;
77191;SDS011;66172;48.526;8.078;2023-02-25T01:07:14;18.57;;;5.00;;
77191;SDS011;66172;48.526;8.078;2023-02-25T01:09:41;16.17;;;5.30;;
77191;SDS011;66172;48.526;8.078;2023-02-25T01:12:07;12.13;;;4.70;;
77191;SDS011;66172;48.526;8.078;2023-02-25T01:14:33;13.60;;;5.32;;
77191;SDS011;66172;48.526;8.078;2023-02-25T01:16:59;12.50;;;4.90;;
77191;SDS011;66172;48.526;8.078;2023-02-25T01:19:27;12.27;;;4.95;;
77191;SDS011;66172;48.526;8.078;2023-02-25T01:21:54;13.63;;;5.43;;
77191;SDS011;66172;48.526;8.078;2023-02-25T01:24:23;14.68;;;5.13;;
77191;SDS011;66172;48.526;8.078;2023-02-25T01:26:52;12.13;;;5.32;;
77191;SDS011;66172;48.526;8.078;2023-02-25T01:29:20;13.90;;;5.20;;
77191;SDS011;66172;48.526;8.078;2023-02-25T01:31:51;14.98;;;4.93;;
77191;SDS011;66172;48.526;8.078;2023-02-25T01:34:19;13.18;;;5.15;;
77191;SDS011;66172;48.526;8.078;2023-02-25T01:36:45;12.88;;;5.22;;
77191;SDS011;66172;48.526;8.078;2023-02-25T01:39:13;14.43;;;5.47;;
77191;SDS011;66172;48.526;8.078;2023-02-25T01:41:40;14.20;;;5.23;;
77191;SDS011;66172;48.526;8.078;2023-02-25T01:46:35;15.43;;;5.10;;
77191;SDS011;66172;48.526;8.078;2023-02-25T01:49:02;15.55;;;5.25;;
77191;SDS011;66172;48.526;8.078;2023-02-25T01:51:34;12.88;;;4.90;;
77191;SDS011;66172;48.526;8.078;2023-02-25T01:54:02;12.93;;;5.10;;
77191;SDS011;66172;48.526;8.078;2023-02-25T01:56:30;12.45;;;5.32;;
77191;SDS011;66172;48.526;8.078;2023-02-25T01:58:57;14.20;;;5.55;;
77191;SDS011;66172;48.526;8.078;2023-02-25T02:01:25;15.23;;;5.55;;
77191;SDS011;66172;48.526;8.078;2023-02-25T02:03:56;17.13;;;6.00;;
77191;SDS011;66172;48.526;8.078;2023-02-25T02:06:23;15.40;;;5.40;;
77191;SDS011;66172;48.526;8.078;2023-02-25T02:08:55;14.13;;;5.65;;
77191;SDS011;66172;48.526;8.078;2023-02-25T02:11:21;14.20;;;5.78;;
77191;SDS011;66172;48.526;8.078;2023-02-25T02:13:47;13.18;;;5.10;;
77191;SDS011;66172;48.526;8.078;2023-02-25T02:16:38;18.60;;;5.82;;
77191;SDS011;66172;48.526;8.078;2023-02-25T02:22:16;15.98;;;5.72;;
77191;SDS011;66172;48.526;8.078;2023-02-25T02:27:48;14.35;;;5.28;;
77191;SDS011;66172;48.526;8.078;2023-02-25T02:36:02;13.63;;;5.43;;
77191;SDS011;66172;48.526;8.078;2023-02-25T02:38:34;16.92;;;5.80;;
77191;SDS011;66172;48.526;8.078;2023-02-25T02:44:09;17.23;;;6.65;;
77191;SDS011;66172;48.526;8.078;2023-02-25T02:46:44;17.40;;;6.50;;
77191;SDS011;66172;48.526;8.078;2023-02-25T02:49:17;16.83;;;7.15;;
77191;SDS011;66172;48.526;8.078;2023-02-25T02:51:50;13.82;;;6.30;;
77191;SDS011;66172;48.526;8.078;2023-02-25T02:54:24;16.30;;;6.43;;
77191;SDS011;66172;48.526;8.078;2023-02-25T02:56:55;13.05;;;6.00;;
77191;SDS011;66172;48.526;8.078;2023-02-25T02:59:27;18.20;;;6.13;;
77191;SDS011;66172;48.526;8.078;2023-02-25T03:02:03;15.98;;;5.80;;
77191;SDS011;66172;48.526;8.078;2023-02-25T03:04:34;15.57;;;6.53;;
77191;SDS011;66172;48.526;8.078;2023-02-25T03:07:04;16.90;;;7.15;;
77191;SDS011;66172;48.526;8.078;2023-02-25T03:09:37;14.48;;;6.18;;
77191;SDS011;66172;48.526;8.078;2023-02-25T03:12:07;16.10;;;6.00;;
77191;SDS011;66172;48.526;8.078;2023-02-25T03:14:34;17.55;;;6.78;;
77191;SDS011;66172;48.526;8.078;2023-02-25T03:17:08;15.32;;;6.30;;
77191;SDS011;66172;48.526;8.078;2023-02-25T03:19:48;17.75;;;6.55;;
77191;SDS011;66172;48.526;8.078;2023-02-25T03:22:22;16.40;;;6.50;;
77191;SDS011;66172;48.526;8.078;2023-02-25T03:24:54;15.90;;;6.30;;
77191;SDS011;66172;48.526;8.078;2023-02-25T03:27:29;18.50;;;6.63;;
77191;SDS011;66172;48.526;8.078;2023-02-25T03:30:03;17.83;;;6.47;;
77191;SDS011;66172;48.526;8.078;2023-02-25T03:32:38;16.58;;;6.07;;
77191;SDS011;66172;48.526;8.078;2023-02-25T03:35:07;15.00;;;5.40;;
77191;SDS011;66172;48.526;8.078;2023-02-25T03:37:36;13.20;;;5.83;;
77191;SDS011;66172;48.526;8.078;2023-02-25T03:40:04;18.65;;;6.28;;
77191;SDS011;66172;48.526;8.078;2023-02-25T03:42:38;13.73;;;6.15;;
77191;SDS011;66172;48.526;8.078;2023-02-25T03:45:09;14.43;;;5.85;;
77191;SDS011;66172;48.526;8.078;2023-02-25T03:47:37;12.77;;;5.45;;
77191;SDS011;66172;48.526;8.078;2023-02-25T03:50:08;14.90;;;6.13;;
77191;SDS011;66172;48.526;8.078;2023-02-25T03:52:39;15.25;;;6.55;;
77191;SDS011;66172;48.526;8.078;2023-02-25T03:55:05;13.13;;;5.30;;
77191;SDS011;66172;48.526;8.078;2023-02-25T03:57:35;17.58;;;5.95;;
77191;SDS011;66172;48.526;8.078;2023-02-25T04:00:04;13.93;;;5.40;;
77191;SDS011;66172;48.526;8.078;2023-02-25T04:02:40;13.67;;;5.17;;
77191;SDS011;66172;48.526;8.078;2023-02-25T04:05:06;13.77;;;5.47;;
77191;SDS011;66172;48.526;8.078;2023-02-25T04:07:34;15.13;;;5.45;;
77191;SDS011;66172;48.526;8.078;2023-02-25T04:10:01;17.92;;;6.07;;
77191;SDS011;66172;48.526;8.078;2023-02-25T04:12:27;15.43;;;6.38;;
77191;SDS011;66172;48.526;8.078;2023-02-25T04:14:52;13.07;;;5.73;;
77191;SDS011;66172;48.526;8.078;2023-02-25T04:17:18;15.30;;;5.43;;
77191;SDS011;66172;48.526;8.078;2023-02-25T04:19:44;13.18;;;5.53;;
77191;SDS011;66172;48.526;8.078;2023-02-25T04:22:10;13.03;;;5.07;;
77191;SDS011;66172;48.526;8.078;2023-02-25T04:24:36;13.27;;;5.05;;
77191;SDS011;66172;48.526;8.078;2023-02-25T04:27:02;13.73;;;5.35;;
77191;SDS011;66172;48.526;8.078;2023-02-25T04:29:28;15.32;;;5.05;;
77191;SDS011;66172;48.526;8.078;2023-02-25T04:31:54;15.20;;;5.47;;
77191;SDS011;66172;48.526;8.078;2023-02-25T04:34:20;16.98;;;6.03;;
77191;SDS011;66172;48.526;8.078;2023-02-25T04:36:46;12.75;;;5.50;;
77191;SDS011;66172;48.526;8.078;2023-02-25T04:39:13;18.45;;;5.60;;
77191;SDS011;66172;48.526;8.078;2023-02-25T04:41:40;12.80;;;5.57;;
77191;SDS011;66172;48.526;8.078;2023-02-25T04:44:06;12.17;;;5.40;;
77191;SDS011;66172;48.526;8.078;2023-02-25T04:46:34;14.50;;;4.65;;
77191;SDS011;66172;48.526;8.078;2023-02-25T04:49:05;16.60;;;5.93;;
77191;SDS011;66172;48.526;8.078;2023-02-25T04:51:33;12.57;;;5.40;;
77191;SDS011;66172;48.526;8.078;2023-02-25T04:54:01;12.55;;;5.20;;
77191;SDS011;66172;48.526;8.078;2023-02-25T04:56:27;15.37;;;5.23;;
77191;SDS011;66172;48.526;8.078;2023-02-25T04:58:53;13.23;;;5.18;;
77191;SDS011;66172;48.526;8.078;2023-02-25T05:01:20;14.50;;;4.82;;
77191;SDS011;66172;48.526;8.078;2023-02-25T05:03:46;11.83;;;4.93;;
77191;SDS011;66172;48.526;8.078;2023-02-25T05:06:12;12.18;;;4.90;;
77191;SDS011;66172;48.526;8.078;2023-02-25T05:08:38;13.35;;;5.15;;
77191;SDS011;66172;48.526;8.078;2023-02-25T05:11:04;15.27;;;6.28;;
77191;SDS011;66172;48.526;8.078;2023-02-25T05:13:30;14.37;;;6.57;;
77191;SDS011;66172;48.526;8.078;2023-02-25T05:16:05;13.15;;;5.57;;
77191;SDS011;66172;48.526;8.078;2023-02-25T05:18:34;15.15;;;7.10;;
77191;SDS011;66172;48.526;8.078;2023-02-25T05:21:01;17.60;;;7.72;;
77191;SDS011;66172;48.526;8.078;2023-02-25T05:23:27;14.13;;;5.47;;
77191;SDS011;66172;48.526;8.078;2023-02-25T05:25:53;15.80;;;6.40;;
77191;SDS011;66172;48.526;8.078;2023-02-25T05:28:19;18.17;;;7.28;;
77191;SDS011;66172;48.526;8.078;2023-02-25T05:30:45;16.00;;;5.90;;
77191;SDS011;66172;48.526;8.078;2023-02-25T05:33:11;18.10;;;7.97;;
77191;SDS011;66172;48.526;8.078;2023-02-25T05:35:38;22.25;;;8.93;;
77191;SDS011;66172;48.526;8.078;2023-02-25T05:38:05;19.15;;;7.93;;
77191;SDS011;66172;48.526;8.078;2023-02-25T05:40:31;12.90;;;5.22;;
77191;SDS011;66172;48.526;8.078;2023-02-25T05:42:57;11.43;;;4.68;;
77191;SDS011;66172;48.526;8.078;2023-02-25T05:45:22;16.03;;;4.53;;
77191;SDS011;66172;48.526;8.078;2023-02-25T05:47:48;13.25;;;5.40;;
77191;SDS011;66172;48.526;8.078;2023-02-25T05:50:14;12.27;;;4.93;;
77191;SDS011;66172;48.526;8.078;2023-02-25T05:52:40;13.23;;;4.93;;
77191;SDS011;66172;48.526;8.078;2023-02-25T05:55:06;13.30;;;4.50;;
77191;SDS011;66172;48.526;8.078;2023-02-25T05:57:34;11.73;;;3.85;;
77191;SDS011;66172;48.526;8.078;2023-02-25T06:00:00;12.60;;;4.05;;
77191;SDS011;66172;48.526;8.078;2023-02-25T06:02:26;12.30;;;3.90;;
77191;SDS011;66172;48.526;8.078;2023-02-25T06:04:52;12.77;;;4.20;;
77191;SDS011;66172;48.526;8.078;2023-02-25T06:07:18;12.07;;;4.32;;
77191;SDS011;66172;48.526;8.078;2023-02-25T06:09:44;12.27;;;4.07;;
77191;SDS011;66172;48.526;8.078;2023-02-25T06:12:10;12.23;;;4.10;;
77191;SDS011;66172;48.526;8.078;2023-02-25T06:14:36;12.40;;;4.27;;
77191;SDS011;66172;48.526;8.078;2023-02-25T06:17:02;14.48;;;3.95;;
77191;SDS011;66172;48.526;8.078;2023-02-25T06:19:28;10.13;;;3.63;;
77191;SDS011;66172;48.526;8.078;2023-02-25T06:21:54;11.57;;;4.07;;
77191;SDS011;66172;48.526;8.078;2023-02-25T06:24:21;12.38;;;3.88;;
77191;SDS011;66172;48.526;8.078;2023-02-25T06:26:49;11.40;;;4.22;;
77191;SDS011;66172;48.526;8.078;2023-02-25T06:29:14;11.57;;;4.40;;
77191;SDS011;66172;48.526;8.078;2023-02-25T06:31:40;10.30;;;4.10;;
77191;SDS011;66172;48.526;8.078;2023-02-25T06:34:06;10.75;;;4.32;;
77191;SDS011;66172;48.526;8.078;2023-02-25T06:36:32;13.70;;;4.90;;
77191;SDS011;66172;48.526;8.078;2023-02-25T06:38:58;10.80;;;4.00;;
77191;SDS011;66172;48.526;8.078;2023-02-25T06:41:24;18.07;;;7.67;;
77191;SDS011;66172;48.526;8.078;2023-02-25T06:43:51;16.05;;;5.78;;
77191;SDS011;66172;48.526;8.078;2023-02-25T06:46:18;11.07;;;4.60;;
77191;SDS011;66172;48.526;8.078;2023-02-25T06:48:46;12.90;;;5.13;;
77191;SDS011;66172;48.526;8.078;2023-02-25T06:51:12;10.60;;;3.90;;
77191;SDS011;66172;48.526;8.078;2023-02-25T06:53:39;13.40;;;3.75;;
77191;SDS011;66172;48.526;8.078;2023-02-25T06:56:07;10.93;;;3.28;;
77191;SDS011;66172;48.526;8.078;2023-02-25T06:58:34;11.20;;;3.30;;
77191;SDS011;66172;48.526;8.078;2023-02-25T07:01:04;10.40;;;3.75;;
77191;SDS011;66172;48.526;8.078;2023-02-25T07:03:31;10.27;;;5.10;;
77191;SDS011;66172;48.526;8.078;2023-02-25T07:05:57;12.07;;;5.03;;
77191;SDS011;66172;48.526;8.078;2023-02-25T07:08:23;12.75;;;4.97;;
77191;SDS011;66172;48.526;8.078;2023-02-25T07:10:48;10.63;;;4.07;;
77191;SDS011;66172;48.526;8.078;2023-02-25T07:13:14;10.40;;;3.60;;
77191;SDS011;66172;48.526;8.078;2023-02-25T07:15:40;10.50;;;3.38;;
77191;SDS011;66172;48.526;8.078;2023-02-25T07:18:06;11.32;;;3.40;;
77191;SDS011;66172;48.526;8.078;2023-02-25T07:20:32;10.93;;;4.00;;
77191;SDS011;66172;48.526;8.078;2023-02-25T07:23:00;12.70;;;4.07;;
77191;SDS011;66172;48.526;8.078;2023-02-25T07:25:27;10.68;;;3.58;;
77191;SDS011;66172;48.526;8.078;2023-02-25T07:27:53;11.20;;;3.60;;
77191;SDS011;66172;48.526;8.078;2023-02-25T07:30:19;9.23;;;3.37;;
77191;SDS011;66172;48.526;8.078;2023-02-25T07:32:45;13.35;;;4.50;;
77191;SDS011;66172;48.526;8.078;2023-02-25T07:35:10;10.60;;;4.80;;
77191;SDS011;66172;48.526;8.078;2023-02-25T07:37:37;11.80;;;4.28;;
77191;SDS011;66172;48.526;8.078;2023-02-25T07:40:04;13.77;;;4.60;;
77191;SDS011;66172;48.526;8.078;2023-02-25T07:42:38;11.70;;;4.15;;
77191;SDS011;66172;48.526;8.078;2023-02-25T07:45:07;12.50;;;3.90;;
77191;SDS011;66172;48.526;8.078;2023-02-25T07:47:34;10.55;;;3.90;;
77191;SDS011;66172;48.526;8.078;2023-02-25T07:50:00;13.02;;;4.00;;
77191;SDS011;66172;48.526;8.078;2023-02-25T07:52:26;11.67;;;4.20;;
77191;SDS011;66172;48.526;8.078;2023-02-25T07:54:52;12.23;;;4.03;;
77191;SDS011;66172;48.526;8.078;2023-02-25T07:57:18;13.82;;;4.07;;
77191;SDS011;66172;48.526;8.078;2023-02-25T07:59:44;10.90;;;4.13;;
77191;SDS011;66172;48.526;8.078;2023-02-25T08:02:10;10.88;;;3.47;;
77191;SDS011;66172;48.526;8.078;2023-02-25T08:04:37;11.77;;;4.28;;
77191;SDS011;66172;48.526;8.078;2023-02-25T08:07:02;10.63;;;3.70;;
77191;SDS011;66172;48.526;8.078;2023-02-25T08:09:28;12.33;;;4.23;;
77191;SDS011;66172;48.526;8.078;2023-02-25T08:11:55;10.20;;;4.05;;
77191;SDS011;66172;48.526;8.078;2023-02-25T08:14:21;12.30;;;4.30;;
77191;SDS011;66172;48.526;8.078;2023-02-25T08:16:47;9.40;;;3.65;;
77191;SDS011;66172;48.526;8.078;2023-02-25T08:19:13;11.93;;;3.80;;
77191;SDS011;66172;48.526;8.078;2023-02-25T08:21:39;11.43;;;3.35;;
77191;SDS011;66172;48.526;8.078;2023-02-25T08:24:05;13.07;;;3.95;;
77191;SDS011;66172;48.526;8.078;2023-02-25T08:26:32;13.82;;;4.07;;
77191;SDS011;66172;48.526;8.078;2023-02-25T08:28:58;11.03;;;3.63;;
77191;SDS011;66172;48.526;8.078;2023-02-25T08:31:24;9.82;;;3.30;;
77191;SDS011;66172;48.526;8.078;2023-02-25T08:33:50;10.68;;;3.22;;
77191;SDS011;66172;48.526;8.078;2023-02-25T08:36:18;9.85;;;3.38;;
77191;SDS011;66172;48.526;8.078;2023-02-25T08:38:48;10.40;;;3.60;;
77191;SDS011;66172;48.526;8.078;2023-02-25T08:41:15;12.10;;;3.40;;
77191;SDS011;66172;48.526;8.078;2023-02-25T08:43:41;10.25;;;3.58;;
77191;SDS011;66172;48.526;8.078;2023-02-25T08:46:08;9.90;;;3.33;;
77191;SDS011;66172;48.526;8.078;2023-02-25T08:48:34;10.65;;;3.00;;
77191;SDS011;66172;48.526;8.078;2023-02-25T08:51:02;10.23;;;3.13;;
77191;SDS011;66172;48.526;8.078;2023-02-25T08:53:29;11.40;;;3.00;;
77191;SDS011;66172;48.526;8.078;2023-02-25T08:55:55;6.72;;;2.22;;
77191;SDS011;66172;48.526;8.078;2023-02-25T08:58:22;10.60;;;2.50;;
77191;SDS011;66172;48.526;8.078;2023-02-25T09:00:47;7.07;;;2.30;;
77191;SDS011;66172;48.526;8.078;2023-02-25T09:03:14;10.63;;;3.10;;
77191;SDS011;66172;48.526;8.078;2023-02-25T09:05:40;7.97;;;2.50;;
77191;SDS011;66172;48.526;8.078;2023-02-25T09:08:06;9.63;;;2.20;;
77191;SDS011;66172;48.526;8.078;2023-02-25T09:10:32;9.53;;;2.77;;
77191;SDS011;66172;48.526;8.078;2023-02-25T09:12:58;9.52;;;2.40;;
77191;SDS011;66172;48.526;8.078;2023-02-25T09:15:24;9.20;;;2.35;;
77191;SDS011;66172;48.526;8.078;2023-02-25T09:17:50;9.93;;;2.40;;
77191;SDS011;66172;48.526;8.078;2023-02-25T09:20:17;9.38;;;2.42;;
77191;SDS011;66172;48.526;8.078;2023-02-25T09:22:43;9.80;;;2.55;;
77191;SDS011;66172;48.526;8.078;2023-02-25T09:25:09;7.97;;;2.30;;
77191;SDS011;66172;48.526;8.078;2023-02-25T09:27:35;7.77;;;2.43;;
77191;SDS011;66172;48.526;8.078;2023-02-25T09:30:01;13.88;;;2.05;;
77191;SDS011;66172;48.526;8.078;2023-02-25T09:32:27;7.57;;;1.50;;
77191;SDS011;66172;48.526;8.078;2023-02-25T09:34:53;8.15;;;1.30;;
77191;SDS011;66172;48.526;8.078;2023-02-25T09:37:18;6.07;;;1.50;;
77191;SDS011;66172;48.526;8.078;2023-02-25T09:39:45;7.15;;;1.45;;
77191;SDS011;66172;48.526;8.078;2023-02-25T09:42:17;11.25;;;2.08;;
77191;SDS011;66172;48.526;8.078;2023-02-25T09:44:50;6.70;;;2.10;;
77191;SDS011;66172;48.526;8.078;2023-02-25T09:47:20;8.43;;;1.40;;
77191;SDS011;66172;48.526;8.078;2023-02-25T09:52:35;8.77;;;1.80;;
77191;SDS011;66172;48.526;8.078;2023-02-25T09:57:52;6.35;;;1.13;;
77191;SDS011;66172;48.526;8.078;2023-02-25T10:00:27;8.27;;;1.27;;
77191;SDS011;66172;48.526;8.078;2023-02-25T10:03:05;8.27;;;1.38;;
77191;SDS011;66172;48.526;8.078;2023-02-25T10:05:52;7.38;;;1.30;;
77191;SDS011;66172;48.526;8.078;2023-02-25T10:08:29;6.43;;;1.38;;
77191;SDS011;66172;48.526;8.078;2023-02-25T10:11:08;7.90;;;1.88;;
77191;SDS011;66172;48.526;8.078;2023-02-25T10:13:46;11.37;;;2.70;;
77191;SDS011;66172;48.526;8.078;2023-02-25T10:24:55;6.78;;;1.58;;
77191;SDS011;66172;48.526;8.078;2023-02-25T10:27:32;7.53;;;1.40;;
77191;SDS011;66172;48.526;8.078;2023-02-25T10:30:06;7.43;;;1.05;;
77191;SDS011;66172;48.526;8.078;2023-02-25T10:32:38;8.40;;;1.63;;
77191;SDS011;66172;48.526;8.078;2023-02-25T10:37:50;7.32;;;1.33;;
77191;SDS011;66172;48.526;8.078;2023-02-25T10:40:17;7.10;;;1.40;;
77191;SDS011;66172;48.526;8.078;2023-02-25T10:42:47;5.88;;;1.20;;
77191;SDS011;66172;48.526;8.078;2023-02-25T10:45:19;6.47;;;1.05;;
77191;SDS011;66172;48.526;8.078;2023-02-25T10:47:53;6.90;;;1.00;;
77191;SDS011;66172;48.526;8.078;2023-02-25T10:50:26;7.32;;;1.00;;
77191;SDS011;66172;48.526;8.078;2023-02-25T10:52:54;10.23;;;1.13;;
77191;SDS011;66172;48.526;8.078;2023-02-25T10:55:29;8.23;;;1.02;;
77191;SDS011;66172;48.526;8.078;2023-02-25T10:58:03;7.80;;;1.20;;
77191;SDS011;66172;48.526;8.078;2023-02-25T11:00:31;5.90;;;0.85;;
77191;SDS011;66172;48.526;8.078;2023-02-25T11:02:59;6.13;;;0.93;;
77191;SDS011;66172;48.526;8.078;2023-02-25T11:07:54;11.05;;;1.60;;
77191;SDS011;66172;48.526;8.078;2023-02-25T11:10:21;8.23;;;1.52;;
77191;SDS011;66172;48.526;8.078;2023-02-25T11:12:49;7.40;;;1.70;;
77191;SDS011;66172;48.526;8.078;2023-02-25T11:17:46;6.20;;;1.13;;
77191;SDS011;66172;48.526;8.078;2023-02-25T11:20:26;9.60;;;1.33;;
77191;SDS011;66172;48.526;8.078;2023-02-25T11:22:55;7.07;;;1.00;;
77191;SDS011;66172;48.526;8.078;2023-02-25T11:25:23;5.20;;;1.00;;
77191;SDS011;66172;48.526;8.078;2023-02-25T11:27:59;7.07;;;1.10;;
77191;SDS011;66172;48.526;8.078;2023-02-25T11:30:33;5.95;;;0.80;;
77191;SDS011;66172;48.526;8.078;2023-02-25T11:33:03;5.57;;;1.50;;
77191;SDS011;66172;48.526;8.078;2023-02-25T11:35:36;6.32;;;1.20;;
77191;SDS011;66172;48.526;8.078;2023-02-25T11:40:42;6.47;;;1.60;;
77191;SDS011;66172;48.526;8.078;2023-02-25T11:43:19;7.05;;;1.67;;
77191;SDS011;66172;48.526;8.078;2023-02-25T11:45:56;7.28;;;1.48;;
77191;SDS011;66172;48.526;8.078;2023-02-25T11:56:24;6.25;;;1.88;;
77191;SDS011;66172;48.526;8.078;2023-02-25T12:13:58;7.20;;;1.35;;
77191;SDS011;66172;48.526;8.078;2023-02-25T12:16:57;8.38;;;1.75;;
77191;SDS011;66172;48.526;8.078;2023-02-25T12:19:38;8.57;;;1.80;;
77191;SDS011;66172;48.526;8.078;2023-02-25T12:33:12;8.43;;;1.85;;
77191;SDS011;66172;48.526;8.078;2023-02-25T12:35:59;7.33;;;1.60;;
77191;SDS011;66172;48.526;8.078;2023-02-25T12:48:21;7.97;;;1.48;;
77191;SDS011;66172;48.526;8.078;2023-02-25T12:53:34;5.28;;;1.02;;
77191;SDS011;66172;48.526;8.078;2023-02-25T12:56:09;7.07;;;1.58;;
77191;SDS011;66172;48.526;8.078;2023-02-25T13:01:50;7.13;;;1.40;;
77191;SDS011;66172;48.526;8.078;2023-02-25T13:13:16;6.07;;;0.90;;
77191;SDS011;66172;48.526;8.078;2023-02-25T13:29:48;6.95;;;0.90;;
77191;SDS011;66172;48.526;8.078;2023-02-25T13:32:37;7.53;;;1.63;;
77191;SDS011;66172;48.526;8.078;2023-02-25T13:35:20;8.90;;;1.77;;
77191;SDS011;66172;48.526;8.078;2023-02-25T13:38:18;9.05;;;1.25;;
77191;SDS011;66172;48.526;8.078;2023-02-25T13:41:10;8.07;;;1.08;;
77191;SDS011;66172;48.526;8.078;2023-02-25T13:57:46;8.77;;;2.53;;
77191;SDS011;66172;48.526;8.078;2023-02-25T14:00:30;7.60;;;1.43;;
77191;SDS011;66172;48.526;8.078;2023-02-25T14:17:17;5.57;;;0.90;;
77191;SDS011;66172;48.526;8.078;2023-02-25T14:31:42;5.97;;;0.95;;
77191;SDS011;66172;48.526;8.078;2023-02-25T14:45:41;7.50;;;1.38;;
77191;SDS011;66172;48.526;8.078;2023-02-25T14:48:13;7.80;;;1.35;;
77191;SDS011;66172;48.526;8.078;2023-02-25T14:59:16;5.68;;;1.38;;
77191;SDS011;66172;48.526;8.078;2023-02-25T15:04:42;7.28;;;1.90;;
77191;SDS011;66172;48.526;8.078;2023-02-25T15:17:00;7.50;;;1.48;;
77191;SDS011;66172;48.526;8.078;2023-02-25T15:22:19;9.30;;;1.40;;
77191;SDS011;66172;48.526;8.078;2023-02-25T15:24:48;6.97;;;1.00;;
77191;SDS011;66172;48.526;8.078;2023-02-25T15:30:01;9.70;;;2.63;;
77191;SDS011;66172;48.526;8.078;2023-02-25T15:32:28;8.00;;;1.38;;
77191;SDS011;66172;48.526;8.078;2023-02-25T15:35:11;5.95;;;1.20;;
77191;SDS011;66172;48.526;8.078;2023-02-25T15:42:47;7.68;;;1.50;;
77191;SDS011;66172;48.526;8.078;2023-02-25T15:55:51;6.75;;;1.60;;
77191;SDS011;66172;48.526;8.078;2023-02-25T16:00:53;7.70;;;1.75;;
77191;SDS011;66172;48.526;8.078;2023-02-25T16:06:01;9.63;;;1.20;;
77191;SDS011;66172;48.526;8.078;2023-02-25T16:08:29;10.23;;;1.40;;
77191;SDS011;66172;48.526;8.078;2023-02-25T16:11:01;7.78;;;1.30;;
77191;SDS011;66172;48.526;8.078;2023-02-25T16:13:31;14.25;;;4.03;;
77191;SDS011;66172;48.526;8.078;2023-02-25T16:15:59;10.17;;;3.87;;
77191;SDS011;66172;48.526;8.078;2023-02-25T16:21:05;10.63;;;2.67;;
77191;SDS011;66172;48.526;8.078;2023-02-25T16:23:38;8.80;;;2.50;;
77191;SDS011;66172;48.526;8.078;2023-02-25T16:29:03;8.80;;;3.17;;
77191;SDS011;66172;48.526;8.078;2023-02-25T16:32:00;6.93;;;2.28;;
77191;SDS011;66172;48.526;8.078;2023-02-25T16:34:37;7.55;;;2.50;;
77191;SDS011;66172;48.526;8.078;2023-02-25T16:39:35;11.10;;;2.20;;
77191;SDS011;66172;48.526;8.078;2023-02-25T16:42:07;6.72;;;1.98;;
77191;SDS011;66172;48.526;8.078;2023-02-25T16:44:36;6.50;;;1.40;;
77191;SDS011;66172;48.526;8.078;2023-02-25T16:47:05;6.35;;;1.88;;
77191;SDS011;66172;48.526;8.078;2023-02-25T16:49:46;6.43;;;1.58;;
77191;SDS011;66172;48.526;8.078;2023-02-25T16:52:18;8.77;;;1.80;;
77191;SDS011;66172;48.526;8.078;2023-02-25T16:54:52;8.45;;;1.65;;
77191;SDS011;66172;48.526;8.078;2023-02-25T16:57:22;13.00;;;3.97;;
77191;SDS011;66172;48.526;8.078;2023-02-25T16:59:49;11.40;;;4.07;;
77191;SDS011;66172;48.526;8.078;2023-02-25T17:02:29;8.85;;;2.70;;
77191;SDS011;66172;48.526;8.078;2023-02-25T17:04:55;9.17;;;2.60;;
77191;SDS011;66172;48.526;8.078;2023-02-25T17:12:24;13.43;;;4.65;;
77191;SDS011;66172;48.526;8.078;2023-02-25T17:14:55;9.00;;;3.10;;
77191;SDS011;66172;48.526;8.078;2023-02-25T17:17:25;10.53;;;2.40;;
77191;SDS011;66172;48.526;8.078;2023-02-25T17:19:54;13.07;;;3.00;;
77191;SDS011;66172;48.526;8.078;2023-02-25T17:22:22;15.52;;;5.72;;
77191;SDS011;66172;48.526;8.078;2023-02-25T17:24:49;16.58;;;6.40;;
77191;SDS011;66172;48.526;8.078;2023-02-25T17:27:18;18.63;;;5.32;;
77191;SDS011;66172;48.526;8.078;2023-02-25T17:29:45;14.63;;;4.70;;
77191;SDS011;66172;48.526;8.078;2023-02-25T17:32:18;11.73;;;3.60;;
77191;SDS011;66172;48.526;8.078;2023-02-25T17:34:46;14.63;;;4.13;;
77191;SDS011;66172;48.526;8.078;2023-02-25T17:37:14;9.80;;;3.80;;
77191;SDS011;66172;48.526;8.078;2023-02-25T17:39:41;10.75;;;3.70;;
77191;SDS011;66172;48.526;8.078;2023-02-25T17:42:24;11.50;;;4.03;;
77191;SDS011;66172;48.526;8.078;2023-02-25T17:45:02;9.05;;;3.40;;
77191;SDS011;66172;48.526;8.078;2023-02-25T17:47:33;7.68;;;2.58;;
77191;SDS011;66172;48.526;8.078;2023-02-25T17:53:04;20.77;;;7.95;;
77191;SDS011;66172;48.526;8.078;2023-02-25T17:55:32;9.23;;;3.03;;
77191;SDS011;66172;48.526;8.078;2023-02-25T17:57:59;10.80;;;3.13;;
77191;SDS011;66172;48.526;8.078;2023-02-25T18:00:31;10.77;;;3.10;;
77191;SDS011;66172;48.526;8.078;2023-02-25T18:03:13;9.10;;;3.33;;
77191;SDS011;66172;48.526;8.078;2023-02-25T18:05:49;12.73;;;3.97;;
77191;SDS011;66172;48.526;8.078;2023-02-25T18:08:22;14.10;;;4.70;;
77191;SDS011;66172;48.526;8.078;2023-02-25T18:10:53;14.98;;;4.88;;
77191;SDS011;66172;48.526;8.078;2023-02-25T18:13:26;13.55;;;4.78;;
77191;SDS011;66172;48.526;8.078;2023-02-25T18:16:15;9.85;;;2.72;;
77191;SDS011;66172;48.526;8.078;2023-02-25T18:18:42;10.48;;;2.22;;
77191;SDS011;66172;48.526;8.078;2023-02-25T18:21:08;7.43;;;1.30;;
77191;SDS011;66172;48.526;8.078;2023-02-25T18:23:35;7.93;;;1.33;;
77191;SDS011;66172;48.526;8.078;2023-02-25T18:26:12;7.32;;;1.13;;
77191;SDS011;66172;48.526;8.078;2023-02-25T18:28:44;6.65;;;1.13;;
77191;SDS011;66172;48.526;8.078;2023-02-25T18:31:12;4.33;;;0.60;;
77191;SDS011;66172;48.526;8.078;2023-02-25T18:33:46;6.15;;;0.70;;
77191;SDS011;66172;48.526;8.078;2023-02-25T18:36:22;4.20;;;0.80;;
77191;SDS011;66172;48.526;8.078;2023-02-25T18:38:54;4.35;;;0.85;;
77191;SDS011;66172;48.526;8.078;2023-02-25T18:41:25;3.88;;;0.65;;